createdAt,value
2023-03-25T00:01:18.589Z,100.00
2023-03-25T00:03:47.021Z,100.00
2023-03-25T00:06:15.191Z,100.00
2023-03-25T00:08:43.113Z,100.00
2023-03-25T00:11:11.120Z,100.00
2023-03-25T00:13:40.495Z,100.00
2023-03-25T00:16:10.328Z,100.00
2023-03-25T00:18:38.500Z,100.00
2023-03-25T00:21:11.975Z,100.00
2023-03-25T00:23:41.469Z,100.00
2023-03-25T00:26:10.311Z,100.00
2023-03-25T00:28:38.844Z,100.00
2023-03-25T00:31:14.290Z,100.00
2023-03-25T00:33:42.802Z,100.00
2023-03-25T00:36:13.759Z,100.00
2023-03-25T00:38:43.659Z,100.00
2023-03-25T00:41:13.475Z,100.00
2023-03-25T00:43:41.791Z,100.00
2023-03-25T00:46:09.723Z,100.00
2023-03-25T00:48:38.217Z,100.00
2023-03-25T00:51:10.305Z,100.00
2023-03-25T00:53:38.357Z,100.00
2023-03-25T00:56:07.333Z,100.00
2023-03-25T00:58:35.360Z,100.00
2023-03-25T01:01:13.453Z,100.00
2023-03-25T01:03:45.886Z,100.00
2023-03-25T01:06:16.869Z,100.00
2023-03-25T01:08:46.195Z,100.00
2023-03-25T01:11:22.048Z,100.00
2023-03-25T01:13:52.672Z,100.00
2023-03-25T01:16:21.186Z,100.00
2023-03-25T01:18:49.473Z,100.00
2023-03-25T01:21:18.720Z,100.00
2023-03-25T01:23:47.521Z,100.00
2023-03-25T01:26:15.798Z,100.00
2023-03-25T01:28:45.585Z,100.00
2023-03-25T01:31:16.003Z,100.00
2023-03-25T01:33:44.522Z,100.00
2023-03-25T01:36:13.116Z,100.00
2023-03-25T01:38:42.281Z,100.00
2023-03-25T01:41:11.284Z,100.00
2023-03-25T01:43:40.437Z,100.00
2023-03-25T01:46:15.776Z,100.00
2023-03-25T01:48:44.674Z,100.00
2023-03-25T01:51:24.152Z,100.00
2023-03-25T01:53:56.733Z,100.00
2023-03-25T01:56:31.953Z,100.00
2023-03-25T01:59:03.272Z,100.00
2023-03-25T02:01:31.892Z,100.00
2023-03-25T02:04:10.015Z,100.00
2023-03-25T02:06:43.813Z,100.00
2023-03-25T02:09:14.675Z,100.00
2023-03-25T02:11:42.981Z,100.00
2023-03-25T02:14:15.488Z,100.00
2023-03-25T02:16:56.870Z,100.00
2023-03-25T02:19:56.152Z,100.00
2023-03-25T02:22:27.254Z,100.00
2023-03-25T02:25:21.297Z,100.00
2023-03-25T02:28:03.390Z,100.00
2023-03-25T02:30:53.230Z,100.00
2023-03-25T02:33:24.326Z,100.00
2023-03-25T02:36:20.568Z,100.00
2023-03-25T02:39:04.198Z,100.00
2023-03-25T02:41:46.993Z,100.00
2023-03-25T02:44:27.892Z,100.00
2023-03-25T02:47:00.782Z,100.00
2023-03-25T02:49:33.934Z,100.00
2023-03-25T02:52:32.519Z,100.00
2023-03-25T02:55:05.102Z,100.00
2023-03-25T02:57:36.081Z,100.00
2023-03-25T03:00:15.587Z,100.00
2023-03-25T03:03:00.184Z,100.00
2023-03-25T03:05:33.837Z,100.00
2023-03-25T03:08:24.406Z,100.00
2023-03-25T03:11:24.285Z,100.00
2023-03-25T03:14:23.890Z,100.00
2023-03-25T03:17:34.254Z,100.00
2023-03-25T03:20:08.632Z,100.00
2023-03-25T03:22:52.982Z,100.00
2023-03-25T03:25:43.026Z,100.00
2023-03-25T03:28:28.979Z,100.00
2023-03-25T03:31:06.762Z,100.00
2023-03-25T03:34:04.299Z,100.00
2023-03-25T03:36:38.912Z,100.00
2023-03-25T03:39:17.273Z,100.00
2023-03-25T03:41:51.050Z,100.00
2023-03-25T03:44:23.018Z,100.00
2023-03-25T03:47:00.256Z,100.00
2023-03-25T03:49:38.422Z,100.00
2023-03-25T03:52:14.528Z,100.00
2023-03-25T03:54:48.416Z,100.00
2023-03-25T03:57:32.324Z,100.00
2023-03-25T04:04:38.952Z,100.00
2023-03-25T04:07:16.455Z,100.00
2023-03-25T04:09:55.090Z,100.00
2023-03-25T04:12:32.761Z,100.00
2023-03-25T04:15:03.554Z,100.00
2023-03-25T04:17:33.156Z,100.00
2023-03-25T04:20:08.715Z,100.00
2023-03-25T04:22:37.853Z,100.00
2023-03-25T04:25:07.212Z,100.00
2023-03-25T04:27:37.832Z,100.00
2023-03-25T04:34:40.110Z,100.00
2023-03-25T04:37:08.025Z,100.00
2023-03-25T04:39:36.076Z,100.00
2023-03-25T04:42:04.226Z,100.00
2023-03-25T04:44:39.343Z,100.00
2023-03-25T04:47:14.971Z,100.00
2023-03-25T04:49:45.223Z,100.00
2023-03-25T04:52:13.286Z,100.00
2023-03-25T04:54:41.345Z,100.00
2023-03-25T04:57:09.463Z,100.00
2023-03-25T04:59:37.808Z,100.00
2023-03-25T05:02:06.936Z,100.00
2023-03-25T05:04:35.319Z,100.00
2023-03-25T05:07:03.730Z,100.00
2023-03-25T05:09:31.709Z,100.00
2023-03-25T05:11:59.640Z,100.00
2023-03-25T05:14:27.610Z,100.00
2023-03-25T05:16:57.525Z,100.00
2023-03-25T05:19:25.679Z,100.00
2023-03-25T05:21:56.172Z,100.00
2023-03-25T05:24:24.216Z,100.00
2023-03-25T05:26:58.110Z,100.00
2023-03-25T05:29:34.120Z,100.00
2023-03-25T05:32:02.254Z,100.00
2023-03-25T05:34:31.159Z,100.00
2023-03-25T05:36:59.368Z,100.00
2023-03-25T05:39:28.552Z,100.00
2023-03-25T05:42:02.680Z,100.00
2023-03-25T05:44:30.799Z,100.00
2023-03-25T05:47:01.701Z,100.00
2023-03-25T05:49:32.802Z,100.00
2023-03-25T05:52:01.872Z,100.00
2023-03-25T05:54:31.676Z,100.00
2023-03-25T05:56:59.685Z,100.00
2023-03-25T05:59:27.842Z,100.00
2023-03-25T06:01:56.422Z,100.00
2023-03-25T06:04:24.813Z,100.00
2023-03-25T06:06:53.064Z,100.00
2023-03-25T06:09:21.095Z,100.00
2023-03-25T06:11:53.519Z,100.00
2023-03-25T06:14:25.585Z,100.00
2023-03-25T06:16:53.450Z,100.00
2023-03-25T06:19:26.642Z,100.00
2023-03-25T06:21:56.285Z,100.00
2023-03-25T06:24:30.760Z,100.00
2023-03-25T06:26:59.152Z,100.00
2023-03-25T06:29:27.761Z,100.00
2023-03-25T06:31:55.909Z,100.00
2023-03-25T06:34:24.019Z,100.00
2023-03-25T06:36:54.508Z,100.00
2023-03-25T06:39:22.721Z,100.00
2023-03-25T06:41:52.207Z,100.00
2023-03-25T06:44:27.784Z,100.00
2023-03-25T06:47:26.603Z,100.00
2023-03-25T06:49:54.978Z,100.00
2023-03-25T06:52:22.959Z,100.00
2023-03-25T06:54:51.006Z,100.00
2023-03-25T06:57:20.243Z,100.00
2023-03-25T06:59:49.746Z,100.00
2023-03-25T07:02:17.603Z,100.00
2023-03-25T07:04:45.817Z,100.00
2023-03-25T07:07:13.761Z,100.00
2023-03-25T07:09:41.957Z,100.00
2023-03-25T07:12:09.960Z,100.00
2023-03-25T07:14:37.925Z,100.00
2023-03-25T07:17:06.481Z,100.00
2023-03-25T07:19:34.494Z,100.00
2023-03-25T07:22:02.534Z,100.00
2023-03-25T07:24:30.500Z,100.00
2023-03-25T07:26:58.772Z,100.00
2023-03-25T07:29:27.635Z,100.00
2023-03-25T07:31:55.619Z,100.00
2023-03-25T07:34:24.029Z,100.00
2023-03-25T07:36:51.959Z,100.00
2023-03-25T07:39:22.003Z,100.00
2023-03-25T07:41:50.136Z,100.00
2023-03-25T07:44:41.128Z,100.00
2023-03-25T07:47:09.175Z,100.00
2023-03-25T07:49:40.959Z,100.00
2023-03-25T07:52:08.915Z,100.00
2023-03-25T07:54:38.372Z,100.00
2023-03-25T07:57:06.441Z,100.00
2023-03-25T07:59:34.888Z,100.00
2023-03-25T08:02:02.870Z,100.00
2023-03-25T08:04:31.379Z,100.00
2023-03-25T08:06:59.345Z,100.00
2023-03-25T08:09:27.359Z,100.00
2023-03-25T08:11:56.172Z,100.00
2023-03-25T08:14:24.336Z,100.00
2023-03-25T08:16:52.342Z,100.00
2023-03-25T08:19:21.149Z,100.00
2023-03-25T08:21:49.119Z,100.00
2023-03-25T08:24:17.181Z,100.00
2023-03-25T08:26:45.165Z,100.00
2023-03-25T08:29:14.564Z,100.00
2023-03-25T08:31:47.014Z,100.00
2023-03-25T08:34:15.386Z,100.00
2023-03-25T08:36:43.505Z,100.00
2023-03-25T08:39:12.902Z,100.00
2023-03-25T08:41:42.011Z,99.54
2023-03-25T08:44:10.648Z,97.27
2023-03-25T08:46:38.782Z,96.05
2023-03-25T08:49:06.782Z,94.22
2023-03-25T08:51:34.881Z,94.88
2023-03-25T08:54:04.367Z,96.32
2023-03-25T08:56:32.374Z,94.70
2023-03-25T08:59:00.449Z,93.68
2023-03-25T09:01:29.823Z,90.67
2023-03-25T09:03:57.925Z,91.48
2023-03-25T09:06:26.160Z,89.31
2023-03-25T09:08:56.261Z,86.95
2023-03-25T09:11:34.041Z,85.34
2023-03-25T09:14:05.231Z,86.36
2023-03-25T09:16:34.367Z,86.27
2023-03-25T09:19:02.778Z,86.94
2023-03-25T09:21:30.725Z,87.42
2023-03-25T09:23:58.724Z,87.39
2023-03-25T09:26:26.814Z,88.89
2023-03-25T09:28:56.460Z,87.76
2023-03-25T09:31:26.137Z,85.99
2023-03-25T09:33:54.419Z,84.98
2023-03-25T09:36:22.370Z,85.78
2023-03-25T09:38:51.020Z,86.31
2023-03-25T09:41:40.940Z,86.34
2023-03-25T09:44:26.215Z,83.98
2023-03-25T09:46:55.651Z,84.16
2023-03-25T09:49:27.993Z,83.50
2023-03-25T09:51:57.494Z,82.95
2023-03-25T09:54:38.808Z,83.08
2023-03-25T09:57:12.334Z,84.57
2023-03-25T09:59:44.667Z,85.53
2023-03-25T10:02:21.727Z,85.25
2023-03-25T10:05:20.288Z,82.21
2023-03-25T10:08:10.589Z,82.12
2023-03-25T10:11:01.490Z,82.61
2023-03-25T10:14:12.704Z,82.86
2023-03-25T10:17:15.807Z,81.45
2023-03-25T10:19:51.367Z,82.02
2023-03-25T10:22:27.210Z,80.90
2023-03-25T10:25:05.353Z,79.80
2023-03-25T10:27:41.536Z,76.78
2023-03-25T10:30:09.553Z,77.84
2023-03-25T10:32:53.539Z,79.56
2023-03-25T10:35:27.319Z,79.38
2023-03-25T10:38:02.080Z,79.93
2023-03-25T10:40:50.467Z,79.56
2023-03-25T10:43:21.685Z,79.74
2023-03-25T10:45:54.197Z,79.27
2023-03-25T10:48:31.357Z,77.66
2023-03-25T10:51:04.704Z,77.15
2023-03-25T10:53:32.795Z,75.62
2023-03-25T10:56:08.330Z,74.93
2023-03-25T10:58:39.557Z,74.48
2023-03-25T11:04:41.593Z,74.27
2023-03-25T11:07:20.692Z,75.77
2023-03-25T11:09:48.754Z,76.16
2023-03-25T11:12:30.158Z,77.28
2023-03-25T11:15:02.433Z,76.61
2023-03-25T11:17:31.582Z,73.76
2023-03-25T11:20:02.119Z,71.93
2023-03-25T11:22:31.732Z,71.02
2023-03-25T11:25:30.690Z,69.93
2023-03-25T11:28:03.111Z,68.59
2023-03-25T11:30:31.355Z,68.55
2023-03-25T11:33:21.425Z,69.39
2023-03-25T11:35:49.790Z,69.81
2023-03-25T11:38:22.295Z,69.33
2023-03-25T11:40:56.150Z,70.10
2023-03-25T11:43:31.440Z,71.87
2023-03-25T11:46:11.603Z,72.88
2023-03-25T11:48:41.696Z,73.64
2023-03-25T11:51:16.575Z,74.40
2023-03-25T11:53:55.702Z,75.43
2023-03-25T11:56:38.293Z,77.57
2023-03-25T11:59:28.448Z,77.97
2023-03-25T12:02:17.708Z,80.02
2023-03-25T12:05:16.755Z,80.36
2023-03-25T12:07:47.552Z,82.23
2023-03-25T12:10:27.130Z,82.19
2023-03-25T12:13:12.272Z,83.31
2023-03-25T12:15:52.372Z,83.72
2023-03-25T12:18:39.683Z,84.60
2023-03-25T12:21:33.651Z,85.88
2023-03-25T12:24:25.764Z,87.14
2023-03-25T12:26:59.823Z,87.93
2023-03-25T12:29:50.272Z,88.70
2023-03-25T12:32:29.709Z,89.50
2023-03-25T12:35:04.513Z,89.61
2023-03-25T12:37:45.671Z,89.58
2023-03-25T12:40:25.730Z,89.97
2023-03-25T12:43:05.685Z,90.43
2023-03-25T12:45:37.578Z,89.60
2023-03-25T12:48:09.030Z,89.33
2023-03-25T12:51:28.281Z,88.04
2023-03-25T12:54:08.818Z,86.95
2023-03-25T12:56:42.979Z,85.54
2023-03-25T12:59:29.511Z,83.80
2023-03-25T13:02:21.604Z,81.70
2023-03-25T13:05:04.681Z,81.82
2023-03-25T13:07:38.722Z,82.61
2023-03-25T13:10:25.215Z,83.84
2023-03-25T13:12:56.362Z,84.53
2023-03-25T13:15:27.754Z,85.92
2023-03-25T13:17:58.244Z,86.88
2023-03-25T13:20:30.144Z,87.22
2023-03-25T13:23:05.063Z,87.60
2023-03-25T13:25:53.129Z,89.13
2023-03-25T13:28:30.516Z,90.57
2023-03-25T13:31:01.366Z,92.28
2023-03-25T13:33:35.348Z,94.06
2023-03-25T13:36:22.359Z,95.24
2023-03-25T13:38:54.109Z,96.46
2023-03-25T13:41:39.108Z,99.17
2023-03-25T13:44:13.036Z,100.00
2023-03-25T13:46:48.969Z,100.00
2023-03-25T13:49:33.050Z,100.00
2023-03-25T13:52:01.846Z,100.00
2023-03-25T13:55:08.925Z,100.00
2023-03-25T13:57:36.867Z,100.00
2023-03-25T14:00:32.205Z,100.00
2023-03-25T14:03:26.501Z,100.00
2023-03-25T14:06:31.017Z,100.00
2023-03-25T14:09:11.295Z,100.00
2023-03-25T14:11:50.424Z,100.00
2023-03-25T14:14:22.358Z,100.00
2023-03-25T14:16:59.929Z,99.92
2023-03-25T14:19:31.922Z,97.65
2023-03-25T14:22:18.086Z,98.22
2023-03-25T14:24:46.943Z,97.33
2023-03-25T14:27:32.725Z,95.96
2023-03-25T14:30:07.065Z,94.93
2023-03-25T14:32:40.138Z,95.15
2023-03-25T14:35:34.148Z,94.20
2023-03-25T14:38:08.781Z,93.91
2023-03-25T14:40:50.680Z,93.71
2023-03-25T14:43:34.354Z,91.39
2023-03-25T14:46:12.974Z,81.13
2023-03-25T14:48:46.923Z,80.94
2023-03-25T14:51:18.608Z,82.45
2023-03-25T14:54:01.061Z,83.74
2023-03-25T14:56:38.318Z,85.22
2023-03-25T14:59:15.763Z,86.92
2023-03-25T15:01:45.686Z,88.90
2023-03-25T15:04:18.664Z,90.56
2023-03-25T15:06:49.219Z,91.24
2023-03-25T15:09:19.025Z,92.65
2023-03-25T15:11:59.893Z,92.89
2023-03-25T15:14:32.899Z,94.32
2023-03-25T15:17:05.609Z,95.44
2023-03-25T15:20:10.930Z,97.19
2023-03-25T15:22:40.996Z,98.97
2023-03-25T15:25:19.439Z,99.92
2023-03-25T15:28:07.463Z,100.00
2023-03-25T15:30:50.896Z,100.00
2023-03-25T15:33:42.898Z,100.00
2023-03-25T15:36:40.272Z,100.00
2023-03-25T15:39:22.745Z,100.00
2023-03-25T15:42:02.967Z,100.00
2023-03-25T15:44:55.631Z,100.00
2023-03-25T15:47:32.157Z,100.00
2023-03-25T15:50:15.186Z,100.00
2023-03-25T15:53:14.042Z,100.00
2023-03-25T15:55:50.481Z,100.00
2023-03-25T15:58:25.695Z,100.00
2023-03-25T16:01:00.331Z,100.00
2023-03-25T16:03:32.043Z,100.00
2023-03-25T16:06:05.166Z,100.00
2023-03-25T16:08:40.814Z,100.00
2023-03-25T16:11:27.487Z,100.00
2023-03-25T16:14:09.373Z,100.00
2023-03-25T16:16:53.328Z,100.00
2023-03-25T16:19:25.913Z,100.00
2023-03-25T16:21:54.951Z,100.00
2023-03-25T16:24:26.737Z,100.00
2023-03-25T16:26:54.733Z,100.00
2023-03-25T16:29:25.906Z,100.00
2023-03-25T16:32:00.560Z,100.00
2023-03-25T16:34:35.444Z,100.00
2023-03-25T16:37:06.299Z,100.00
2023-03-25T16:39:36.952Z,100.00
2023-03-25T16:42:17.092Z,100.00
2023-03-25T16:44:46.372Z,100.00
2023-03-25T16:47:17.162Z,100.00
2023-03-25T16:49:48.246Z,100.00
2023-03-25T16:52:22.521Z,100.00
2023-03-25T16:54:50.486Z,100.00
2023-03-25T16:57:27.474Z,100.00
2023-03-25T16:59:56.240Z,100.00
2023-03-25T17:02:24.263Z,100.00
2023-03-25T17:04:55.895Z,100.00
2023-03-25T17:07:28.799Z,100.00
2023-03-25T17:09:59.460Z,100.00
2023-03-25T17:12:29.303Z,100.00
2023-03-25T17:15:07.017Z,100.00
2023-03-25T17:17:51.367Z,100.00
2023-03-25T17:20:25.124Z,100.00
2023-03-25T17:23:14.085Z,100.00
2023-03-25T17:25:56.734Z,100.00
2023-03-25T17:28:33.805Z,100.00
2023-03-25T17:31:36.403Z,100.00
2023-03-25T17:34:13.242Z,100.00
2023-03-25T17:36:45.460Z,100.00
2023-03-25T17:39:21.147Z,100.00
2023-03-25T17:42:01.565Z,100.00
2023-03-25T17:44:32.797Z,100.00
2023-03-25T17:47:00.917Z,100.00
2023-03-25T17:49:29.169Z,100.00
2023-03-25T17:52:01.287Z,100.00
2023-03-25T17:54:29.411Z,100.00
2023-03-25T17:56:57.611Z,100.00
2023-03-25T17:59:26.871Z,100.00
2023-03-25T18:01:55.158Z,100.00
2023-03-25T18:04:23.235Z,100.00
2023-03-25T18:06:52.382Z,100.00
2023-03-25T18:09:24.967Z,100.00
2023-03-25T18:11:56.363Z,100.00
2023-03-25T18:14:26.007Z,100.00
2023-03-25T18:16:54.601Z,100.00
2023-03-25T18:19:32.339Z,100.00
2023-03-25T18:22:09.768Z,100.00
2023-03-25T18:24:42.063Z,100.00
2023-03-25T18:27:14.314Z,100.00
2023-03-25T18:29:42.381Z,100.00
2023-03-25T18:32:10.476Z,100.00
2023-03-25T18:34:38.526Z,100.00
2023-03-25T18:37:07.708Z,100.00
2023-03-25T18:39:35.790Z,100.00
2023-03-25T18:42:03.822Z,100.00
2023-03-25T18:44:31.788Z,100.00
2023-03-25T18:47:00.040Z,100.00
2023-03-25T18:49:28.193Z,100.00
2023-03-25T18:51:57.897Z,100.00
2023-03-25T18:54:26.004Z,100.00
2023-03-25T18:56:54.096Z,100.00
2023-03-25T18:59:22.240Z,100.00
2023-03-25T19:04:39.874Z,100.00
2023-03-25T19:07:13.358Z,100.00
2023-03-25T19:09:41.758Z,100.00
2023-03-25T19:12:11.070Z,100.00
2023-03-25T19:14:39.106Z,100.00
2023-03-25T19:17:07.412Z,100.00
2023-03-25T19:19:36.394Z,100.00
2023-03-25T19:22:04.570Z,100.00
2023-03-25T19:24:32.517Z,100.00
2023-03-25T19:27:01.013Z,100.00
2023-03-25T19:29:29.301Z,100.00
2023-03-25T19:31:57.839Z,100.00
2023-03-25T19:34:26.039Z,100.00
2023-03-25T19:37:02.492Z,100.00
2023-03-25T19:39:31.637Z,100.00
2023-03-25T19:41:59.669Z,100.00
2023-03-25T19:44:27.826Z,100.00
2023-03-25T19:46:56.038Z,100.00
2023-03-25T19:49:36.723Z,100.00
2023-03-25T19:52:08.402Z,100.00
2023-03-25T19:54:36.375Z,100.00
2023-03-25T19:57:04.374Z,100.00
2023-03-25T19:59:33.538Z,100.00
2023-03-25T20:02:02.183Z,100.00
2023-03-25T20:04:30.250Z,100.00
2023-03-25T20:06:58.213Z,100.00
2023-03-25T20:09:27.882Z,100.00
2023-03-25T20:11:57.271Z,100.00
2023-03-25T20:14:25.221Z,100.00
2023-03-25T20:16:53.410Z,100.00
2023-03-25T20:19:22.216Z,100.00
2023-03-25T20:21:50.614Z,100.00
2023-03-25T20:24:19.042Z,100.00
2023-03-25T20:26:47.097Z,100.00
2023-03-25T20:29:17.655Z,100.00
2023-03-25T20:31:46.045Z,100.00
2023-03-25T20:34:14.296Z,100.00
2023-03-25T20:36:42.301Z,100.00
2023-03-25T20:39:11.336Z,100.00
2023-03-25T20:41:39.575Z,100.00
2023-03-25T20:44:07.724Z,100.00
2023-03-25T20:46:35.816Z,100.00
2023-03-25T20:49:06.866Z,100.00
2023-03-25T20:51:36.462Z,100.00
2023-03-25T20:54:04.599Z,100.00
2023-03-25T20:56:33.192Z,100.00
2023-03-25T20:59:02.534Z,100.00
2023-03-25T21:01:31.852Z,100.00
2023-03-25T21:04:25.195Z,100.00
2023-03-25T21:06:53.323Z,100.00
2023-03-25T21:09:22.252Z,100.00
2023-03-25T21:11:50.916Z,100.00
2023-03-25T21:14:19.272Z,100.00
2023-03-25T21:16:47.932Z,100.00
2023-03-25T21:19:16.610Z,100.00
2023-03-25T21:21:44.562Z,100.00
2023-03-25T21:24:14.122Z,100.00
2023-03-25T21:26:41.975Z,100.00
2023-03-25T21:29:10.198Z,100.00
2023-03-25T21:31:38.250Z,100.00
2023-03-25T21:34:06.558Z,100.00
2023-03-25T21:36:34.482Z,100.00
2023-03-25T21:39:04.519Z,100.00
2023-03-25T21:41:32.553Z,100.00
2023-03-25T21:44:00.791Z,100.00
2023-03-25T21:46:29.091Z,100.00
2023-03-25T21:49:00.946Z,100.00
2023-03-25T21:51:36.006Z,100.00
2023-03-25T21:54:04.205Z,100.00
2023-03-25T21:56:34.727Z,100.00
2023-03-25T21:59:04.639Z,100.00
2023-03-25T22:01:32.783Z,100.00
2023-03-25T22:04:03.002Z,100.00
2023-03-25T22:06:33.416Z,100.00
2023-03-25T22:09:05.574Z,100.00
2023-03-25T22:11:37.419Z,100.00
2023-03-25T22:14:05.639Z,100.00
2023-03-25T22:16:34.227Z,100.00
2023-03-25T22:19:02.323Z,100.00
2023-03-25T22:21:37.131Z,100.00
2023-03-25T22:24:07.224Z,100.00
2023-03-25T22:26:38.548Z,100.00
2023-03-25T22:29:08.327Z,100.00
2023-03-25T22:31:40.871Z,100.00
2023-03-25T22:34:13.111Z,100.00
2023-03-25T22:36:46.349Z,100.00
2023-03-25T22:39:14.531Z,100.00
2023-03-25T22:41:42.407Z,100.00
2023-03-25T22:44:10.771Z,100.00
2023-03-25T22:46:40.366Z,100.00
2023-03-25T22:49:08.350Z,100.00
2023-03-25T22:51:36.370Z,100.00
2023-03-25T22:54:09.942Z,100.00
2023-03-25T22:56:43.497Z,100.00
2023-03-25T22:59:13.742Z,100.00
2023-03-25T23:01:42.879Z,100.00
2023-03-25T23:04:11.232Z,100.00
2023-03-25T23:06:39.511Z,100.00
2023-03-25T23:09:09.207Z,100.00
2023-03-25T23:11:38.032Z,100.00
2023-03-25T23:14:13.349Z,100.00
2023-03-25T23:16:42.080Z,100.00
2023-03-25T23:19:10.451Z,100.00
2023-03-25T23:21:39.039Z,100.00
2023-03-25T23:24:07.900Z,100.00
2023-03-25T23:26:39.387Z,100.00
2023-03-25T23:29:10.612Z,100.00
2023-03-25T23:31:41.509Z,100.00
2023-03-25T23:34:15.526Z,100.00
2023-03-25T23:36:43.976Z,100.00
2023-03-25T23:39:15.545Z,100.00
2023-03-25T23:41:45.553Z,100.00
2023-03-25T23:44:13.541Z,100.00
2023-03-25T23:46:42.004Z,100.00
2023-03-25T23:49:10.857Z,100.00
2023-03-25T23:51:41.434Z,100.00
2023-03-25T23:54:12.351Z,100.00
2023-03-25T23:56:42.358Z,100.00
2023-03-25T23:59:11.714Z,100.00
